Time;durP1;ratioP1;P1;durP2;ratioP2;P2;SDS_P1;SDS_P2;PMS_P1;PMS_P2;Temp;Humidity;BMP_temperature;BMP_pressure;BME280_temperature;BME280_humidity;BME280_pressure;Samples;Min_cycle;Max_cycle;Signal;HPM_P1;HPM_P2
2022/04/13 00:00:48;;;;;;;15.48;9.43;;;;;;;12.30;100.00;101150.25;5107116;28;20519;-33
2022/04/13 00:03:15;;;;;;;19.48;9.77;;;;;;;12.25;100.00;101156.75;5109893;28;20047;-29
2022/04/13 00:05:43;;;;;;;17.35;9.48;;;;;;;12.20;100.00;101158.78;5110113;28;20100;-27
2022/04/13 00:08:11;;;;;;;22.35;11.93;;;;;;;12.15;100.00;101153.28;5109756;28;20108;-28
2022/04/13 00:10:39;;;;;;;19.17;12.23;;;;;;;12.09;100.00;101155.31;5111666;28;20053;-25
2022/04/13 00:13:08;;;;;;;19.88;11.40;;;;;;;12.03;100.00;101151.75;5115109;28;20047;-28
2022/04/13 00:15:37;;;;;;;18.48;10.25;;;;;;;12.01;100.00;101156.00;5114220;28;20078;-28
2022/04/13 00:18:06;;;;;;;18.58;10.88;;;;;;;12.01;100.00;101150.41;5114143;28;20127;-29
2022/04/13 00:20:34;;;;;;;15.82;9.63;;;;;;;12.00;100.00;101151.53;5114746;28;20092;-31
2022/04/13 00:23:02;;;;;;;17.08;10.60;;;;;;;12.01;100.00;101156.81;5114040;28;20389;-27
2022/04/13 00:25:30;;;;;;;17.00;9.68;;;;;;;11.99;100.00;101153.50;5114492;28;20043;-32
2022/04/13 00:27:58;;;;;;;18.55;10.75;;;;;;;11.97;100.00;101150.19;5114852;28;20051;-26
2022/04/13 00:30:27;;;;;;;19.75;11.25;;;;;;;11.96;100.00;101158.88;5114049;28;20047;-28
2022/04/13 00:32:55;;;;;;;18.67;11.07;;;;;;;11.93;100.00;101159.47;5114519;28;20496;-27
2022/04/13 00:35:23;;;;;;;17.95;10.50;;;;;;;11.89;100.00;101164.84;5113778;28;20039;-31
2022/04/13 00:37:51;;;;;;;23.45;11.45;;;;;;;11.87;100.00;101166.28;5114386;28;20052;-28
2022/04/13 00:40:19;;;;;;;18.52;10.85;;;;;;;11.84;100.00;101169.66;5114357;28;20412;-30
2022/04/13 00:42:47;;;;;;;21.10;11.10;;;;;;;11.82;100.00;101166.34;5112711;28;20054;-30
2022/04/13 00:45:14;;;;;;;18.88;10.52;;;;;;;11.80;100.00;101177.81;5114416;28;20062;-29
2022/04/13 00:47:46;;;;;;;20.00;11.10;;;;;;;11.80;100.00;101171.38;5114090;28;20515;-28
2022/04/13 00:50:14;;;;;;;17.25;9.90;;;;;;;11.75;100.00;101180.66;5113208;28;20035;-28
2022/04/13 00:52:45;;;;;;;14.43;9.02;;;;;;;11.74;100.00;101188.22;5114159;28;20032;-28
2022/04/13 00:55:15;;;;;;;15.73;9.32;;;;;;;11.76;100.00;101193.53;5114522;28;20104;-31
2022/04/13 00:57:44;;;;;;;16.27;8.55;;;;;;;11.77;100.00;101194.38;5113583;28;20394;-29
2022/04/13 01:00:13;;;;;;;16.27;8.27;;;;;;;11.77;100.00;101186.81;5113995;28;20032;-28
2022/04/13 01:02:44;;;;;;;16.02;8.50;;;;;;;11.81;100.00;101195.41;5113966;28;20086;-29
2022/04/13 01:05:13;;;;;;;14.70;8.20;;;;;;;11.82;100.00;101189.53;5113116;28;20052;-28
2022/04/13 01:07:42;;;;;;;15.43;7.78;;;;;;;11.85;100.00;101202.09;5114132;27;20054;-26
2022/04/13 01:10:10;;;;;;;14.07;7.70;;;;;;;11.86;100.00;101189.78;5114114;28;20047;-36
2022/04/13 01:12:38;;;;;;;15.20;9.23;;;;;;;11.89;100.00;101201.19;5113042;27;20054;-29
2022/04/13 01:15:07;;;;;;;14.68;8.88;;;;;;;11.91;100.00;101201.72;5113745;28;20130;-27
2022/04/13 01:17:35;;;;;;;14.48;8.10;;;;;;;11.94;100.00;101198.34;5112769;28;20126;-28
2022/04/13 01:20:05;;;;;;;18.42;9.88;;;;;;;11.94;100.00;101195.53;5113786;28;20070;-31
2022/04/13 01:22:34;;;;;;;16.50;9.13;;;;;;;11.96;100.00;101198.03;5112613;28;20176;-28
2022/04/13 01:25:02;;;;;;;13.50;8.38;;;;;;;11.99;100.00;101194.66;5112878;28;20147;-30
2022/04/13 01:27:30;;;;;;;12.25;8.40;;;;;;;12.00;100.00;101197.13;5113440;28;20138;-25
2022/04/13 01:29:58;;;;;;;18.48;9.20;;;;;;;12.02;100.00;101186.47;5113390;28;20455;-28
2022/04/13 01:32:26;;;;;;;16.60;9.25;;;;;;;12.06;100.00;101197.88;5112771;28;20044;-28
2022/04/13 01:34:54;;;;;;;16.80;9.13;;;;;;;12.08;100.00;101198.41;5113340;28;20048;-28
2022/04/13 01:37:22;;;;;;;15.80;8.82;;;;;;;12.11;100.00;101191.41;5113528;28;20047;-27
2022/04/13 01:39:52;;;;;;;18.45;10.50;;;;;;;12.11;100.00;101195.03;5109303;28;20055;-29
2022/04/13 01:42:20;;;;;;;19.90;10.27;;;;;;;12.12;100.00;101196.69;5113230;28;20035;-28
2022/04/13 01:44:48;;;;;;;21.92;11.10;;;;;;;12.12;100.00;101201.44;5112864;28;20126;-28
2022/04/13 01:47:15;;;;;;;17.45;9.95;;;;;;;12.07;100.00;101199.56;5112677;28;20040;-30
2022/04/13 01:49:44;;;;;;;17.85;10.13;;;;;;;12.06;100.00;101204.31;5113115;28;20074;-29
2022/04/13 01:52:12;;;;;;;19.10;10.95;;;;;;;12.03;100.00;101213.31;5112141;28;20055;-29
2022/04/13 01:54:40;;;;;;;19.48;10.38;;;;;;;12.01;100.00;101211.94;5112408;28;20412;-32
2022/04/13 01:57:09;;;;;;;16.55;9.45;;;;;;;11.93;100.00;101216.25;5111457;28;20134;-29
2022/04/13 01:59:37;;;;;;;17.67;9.75;;;;;;;11.87;100.00;101222.19;5111619;28;20052;-28
2022/04/13 02:02:05;;;;;;;14.43;9.18;;;;;;;11.83;100.00;101213.56;5112166;28;20051;-26
2022/04/13 02:04:34;;;;;;;18.95;10.55;;;;;;;11.77;100.00;101225.97;5112977;28;20096;-27
2022/04/13 02:07:02;;;;;;;19.20;9.80;;;;;;;11.69;100.00;101223.78;5111980;28;20070;-29
2022/04/13 02:09:30;;;;;;;15.80;9.23;;;;;;;11.64;100.00;101226.63;5112908;27;20054;-30
2022/04/13 02:11:58;;;;;;;17.15;9.50;;;;;;;11.57;100.00;101232.59;5112575;28;20059;-27
2022/04/13 02:14:27;;;;;;;16.83;9.30;;;;;;;11.52;100.00;101240.19;5111865;28;20598;-27
2022/04/13 02:16:55;;;;;;;17.67;9.65;;;;;;;11.46;100.00;101241.38;5111131;28;20047;-29
2022/04/13 02:19:23;;;;;;;17.73;9.00;;;;;;;11.43;100.00;101236.38;5112558;28;20032;-30
2022/04/13 02:21:50;;;;;;;18.02;10.57;;;;;;;11.37;100.00;101235.63;5111601;28;20483;-33
2022/04/13 02:24:18;;;;;;;16.73;9.50;;;;;;;11.37;100.00;101236.44;5112445;28;20420;-32
2022/04/13 02:26:46;;;;;;;19.10;9.93;;;;;;;11.36;100.00;101243.16;5112298;28;20046;-29
2022/04/13 02:29:14;;;;;;;19.02;10.77;;;;;;;11.32;100.00;101250.47;5111660;28;20532;-27
2022/04/13 02:31:43;;;;;;;20.63;9.98;;;;;;;11.29;100.00;101242.66;5112316;28;20404;-29
2022/04/13 02:34:11;;;;;;;15.55;9.43;;;;;;;11.27;100.00;101239.34;5100707;28;20496;-30
2022/04/13 02:36:39;;;;;;;13.68;9.25;;;;;;;11.26;100.00;101226.50;5111142;28;20535;-27
2022/04/13 02:39:06;;;;;;;14.38;8.82;;;;;;;11.26;100.00;101223.69;5112015;28;20500;-30
2022/04/13 02:41:34;;;;;;;16.63;8.70;;;;;;;11.24;100.00;101222.31;5112014;27;20039;-25
2022/04/13 02:44:02;;;;;;;16.27;8.18;;;;;;;11.18;100.00;101215.97;5111480;28;20044;-29
2022/04/13 02:46:30;;;;;;;19.00;9.23;;;;;;;11.17;100.00;101219.06;5112022;28;20044;-27
2022/04/13 02:48:59;;;;;;;15.95;8.27;;;;;;;11.14;100.00;101223.28;5111481;28;20047;-30
2022/04/13 02:51:26;;;;;;;14.65;7.75;;;;;;;11.12;100.00;101231.09;5111924;28;20052;-33
2022/04/13 02:53:54;;;;;;;15.80;8.57;;;;;;;11.11;100.00;101229.44;5111745;28;20144;-24
2022/04/13 02:56:24;;;;;;;15.27;7.97;;;;;;;11.09;100.00;101234.50;5111486;28;20044;-31
2022/04/13 02:58:52;;;;;;;18.20;8.68;;;;;;;11.05;100.00;101239.00;5111765;28;20051;-33
2022/04/13 03:01:19;;;;;;;17.60;8.13;;;;;;;11.01;100.00;101233.16;5111618;28;20031;-33
2022/04/13 03:03:47;;;;;;;16.77;7.63;;;;;;;10.98;100.00;101238.50;5110740;28;20059;-27
2022/04/13 03:06:16;;;;;;;13.95;7.60;;;;;;;10.97;100.00;101237.69;5111717;28;20046;-30
2022/04/13 03:08:45;;;;;;;18.02;7.95;;;;;;;10.93;100.00;101241.34;5111644;28;20069;-25
2022/04/13 03:11:12;;;;;;;16.27;7.72;;;;;;;10.92;100.00;101251.66;5110790;28;20043;-27
2022/04/13 03:13:40;;;;;;;12.07;6.95;;;;;;;10.89;100.00;101246.66;5111571;28;20047;-28
2022/04/13 03:16:08;;;;;;;18.52;8.80;;;;;;;10.89;100.00;101245.84;5111244;28;20544;-27
2022/04/13 03:18:36;;;;;;;18.20;9.75;;;;;;;10.87;100.00;101248.09;5110487;28;20601;-36
2022/04/13 03:21:03;;;;;;;14.82;7.43;;;;;;;10.84;100.00;101246.69;5111661;28;20040;-30
2022/04/13 03:23:33;;;;;;;17.90;8.27;;;;;;;10.84;100.00;101252.28;5111498;27;20051;-28
2022/04/13 03:26:02;;;;;;;20.88;8.85;;;;;;;10.82;100.00;101257.31;5110629;28;20044;-30
2022/04/13 03:28:29;;;;;;;15.10;8.40;;;;;;;10.80;100.00;101261.53;5111107;28;20504;-28
2022/04/13 03:30:57;;;;;;;19.15;9.43;;;;;;;10.78;100.00;101261.00;5110850;28;20458;-27
2022/04/13 03:33:25;;;;;;;18.00;8.65;;;;;;;10.76;100.00;101264.09;5109124;28;20126;-29
2022/04/13 03:35:53;;;;;;;18.08;8.07;;;;;;;10.77;100.00;101274.13;5110257;28;20499;-25
2022/04/13 03:38:21;;;;;;;16.35;8.60;;;;;;;10.78;100.00;101273.00;5110182;28;20557;-30
2022/04/13 03:40:50;;;;;;;16.95;8.50;;;;;;;10.76;100.00;101274.41;5110113;28;20134;-33
2022/04/13 03:43:17;;;;;;;18.73;9.02;;;;;;;10.76;100.00;101280.00;5110939;28;20046;-29
2022/04/13 03:45:45;;;;;;;16.40;8.52;;;;;;;10.76;100.00;101274.41;5109387;28;20502;-34
2022/04/13 03:48:13;;;;;;;13.52;8.57;;;;;;;10.77;100.00;101271.34;5111072;28;20044;-28
2022/04/13 03:50:41;;;;;;;12.77;7.82;;;;;;;10.78;100.00;101275.81;5111034;28;20044;-28
2022/04/13 03:53:08;;;;;;;16.23;8.32;;;;;;;10.77;100.00;101276.94;5102841;28;20031;-31
2022/04/13 03:55:36;;;;;;;14.48;8.43;;;;;;;10.78;100.00;101283.34;5110720;28;20051;-26
2022/04/13 03:58:05;;;;;;;14.88;7.90;;;;;;;10.80;100.00;101281.06;5110607;28;20051;-27
2022/04/13 04:00:33;;;;;;;18.73;8.57;;;;;;;10.78;100.00;101277.75;5110319;28;20039;-27
2022/04/13 04:03:01;;;;;;;15.32;8.85;;;;;;;10.77;100.00;101276.94;5110649;28;20039;-28
2022/04/13 04:05:29;;;;;;;18.52;9.25;;;;;;;10.78;100.00;101294.50;5110780;28;20043;-29
2022/04/13 04:07:57;;;;;;;16.88;7.90;;;;;;;10.78;100.00;101284.19;5109886;28;20050;-25
2022/04/13 04:10:25;;;;;;;14.45;8.25;;;;;;;10.76;100.00;101288.38;5110541;28;20043;-29
2022/04/13 04:12:57;;;;;;;18.80;8.68;;;;;;;10.75;100.00;101298.72;5111017;28;20036;-32
2022/04/13 04:15:26;;;;;;;17.40;8.60;;;;;;;10.74;100.00;101302.63;5098574;28;20062;-31
2022/04/13 04:17:54;;;;;;;17.38;8.80;;;;;;;10.71;100.00;101311.56;5110780;28;20047;-32
2022/04/13 04:20:22;;;;;;;18.15;8.07;;;;;;;10.69;100.00;101300.69;5110332;28;20051;-28
2022/04/13 04:22:50;;;;;;;15.45;7.55;;;;;;;10.66;100.00;101298.47;5110512;28;20412;-28
2022/04/13 04:25:18;;;;;;;16.55;8.00;;;;;;;10.64;100.00;101303.50;5110171;28;20055;-30
2022/04/13 04:27:45;;;;;;;15.15;8.23;;;;;;;10.61;100.00;101304.09;5109847;28;20066;-30
2022/04/13 04:30:13;;;;;;;15.57;8.90;;;;;;;10.59;100.00;101313.91;5110563;28;20054;-30
2022/04/13 04:32:42;;;;;;;17.38;8.07;;;;;;;10.57;100.00;101324.50;5106861;28;20282;-30
2022/04/13 04:35:11;;;;;;;21.85;9.25;;;;;;;10.52;100.00;101327.31;5109505;28;20052;-27
2022/04/13 04:37:39;;;;;;;15.77;8.63;;;;;;;10.47;100.00;101322.59;5109791;28;20058;-28
2022/04/13 04:40:07;;;;;;;17.60;8.57;;;;;;;10.42;100.00;101322.63;5110389;28;20047;-32
2022/04/13 04:42:45;;;;;;;16.35;8.23;;;;;;;10.41;100.00;101334.06;5108912;28;20044;-30
2022/04/13 04:45:16;;;;;;;16.52;8.20;;;;;;;10.35;100.00;101341.63;5107990;28;20428;-28
2022/04/13 04:47:48;;;;;;;14.68;8.20;;;;;;;10.30;100.00;101338.88;5108356;28;20047;-30
2022/04/13 04:50:16;;;;;;;17.20;8.73;;;;;;;10.28;100.00;101341.09;5108338;28;20048;-30
2022/04/13 04:52:44;;;;;;;14.23;7.90;;;;;;;10.26;100.00;101340.53;5108886;28;20521;-26
2022/04/13 04:55:14;;;;;;;18.27;8.07;;;;;;;10.26;100.00;101338.59;5101408;28;20074;-29
2022/04/13 04:57:42;;;;;;;18.42;8.60;;;;;;;10.25;100.00;101347.25;5110714;28;20048;-24
2022/04/13 05:00:12;;;;;;;17.15;7.65;;;;;;;10.25;100.00;101347.25;5113056;28;20051;-31
2022/04/13 05:02:40;;;;;;;17.13;7.97;;;;;;;10.25;100.00;101342.50;5112284;28;20054;-29
2022/04/13 05:05:11;;;;;;;12.48;7.00;;;;;;;10.26;100.00;101343.34;5112807;28;20392;-31
2022/04/13 05:07:40;;;;;;;15.63;7.30;;;;;;;10.26;100.00;101360.91;5112807;28;20458;-27
2022/04/13 05:10:09;;;;;;;13.77;6.72;;;;;;;10.28;100.00;101358.66;5111902;28;20044;-29
2022/04/13 05:12:44;;;;;;;12.65;7.65;;;;;;;10.26;100.00;101355.34;5112339;28;20134;-28
2022/04/13 05:15:13;;;;;;;14.75;7.40;;;;;;;10.25;100.00;101364.81;5110864;28;20494;-25
2022/04/13 05:17:42;;;;;;;16.38;8.43;;;;;;;10.24;100.00;101365.94;5112106;28;20073;-31
2022/04/13 05:20:11;;;;;;;18.27;8.90;;;;;;;10.24;100.00;101363.16;5112317;28;20040;-32
2022/04/13 05:22:39;;;;;;;15.38;7.85;;;;;;;10.23;100.00;101367.06;5100850;28;20048;-33
2022/04/13 05:25:09;;;;;;;16.35;8.00;;;;;;;10.23;100.00;101377.38;5112809;28;20050;-29
2022/04/13 05:27:37;;;;;;;14.90;7.13;;;;;;;10.24;100.00;101379.03;5112629;28;20099;-29
2022/04/13 05:30:07;;;;;;;13.90;7.32;;;;;;;10.23;100.00;101378.22;5111936;28;20564;-28
2022/04/13 05:32:46;;;;;;;16.17;7.28;;;;;;;10.24;100.00;101385.47;5109099;28;20044;-33
2022/04/13 05:35:15;;;;;;;16.00;7.82;;;;;;;10.21;100.00;101388.81;5102469;28;20042;-29
2022/04/13 05:37:43;;;;;;;16.90;7.97;;;;;;;10.21;100.00;101396.34;5109517;28;20043;-27
2022/04/13 05:40:12;;;;;;;13.60;6.88;;;;;;;10.20;100.00;101405.81;5113219;28;20056;-29
2022/04/13 05:42:40;;;;;;;16.40;7.53;;;;;;;10.20;100.00;101403.03;5112828;28;20043;-29
2022/04/13 05:45:09;;;;;;;14.15;7.75;;;;;;;10.22;100.00;101403.59;5107400;28;20058;-31
2022/04/13 05:47:38;;;;;;;14.52;7.72;;;;;;;10.24;100.00;101410.56;5112659;28;20401;-32
2022/04/13 05:50:07;;;;;;;14.52;7.68;;;;;;;10.27;100.00;101418.38;5112619;28;20051;-30
2022/04/13 05:52:36;;;;;;;16.98;8.75;;;;;;;10.28;100.00;101408.88;5111945;28;20134;-30
2022/04/13 05:55:05;;;;;;;16.38;7.15;;;;;;;10.30;100.00;101408.59;5111464;28;20048;-27
2022/04/13 05:57:33;;;;;;;13.93;7.20;;;;;;;10.33;100.00;101427.56;5112810;28;20126;-28
2022/04/13 06:00:01;;;;;;;16.52;7.25;;;;;;;10.33;100.00;101435.94;5111874;28;20132;-31
2022/04/13 06:02:31;;;;;;;17.73;7.47;;;;;;;10.37;100.00;101436.19;5112698;28;20056;-28
2022/04/13 06:04:59;;;;;;;16.45;7.20;;;;;;;10.40;100.00;101433.66;5112250;28;20521;-28
2022/04/13 06:07:27;;;;;;;10.77;6.65;;;;;;;10.44;100.00;101434.75;5111899;28;20059;-30
2022/04/13 06:10:01;;;;;;;14.82;6.75;;;;;;;10.47;100.00;101444.53;5112109;27;20051;-25
2022/04/13 06:12:29;;;;;;;15.93;6.90;;;;;;;10.48;100.00;101441.44;5112748;28;20040;-29
2022/04/13 06:15:01;;;;;;;16.63;6.38;;;;;;;10.52;100.00;101450.94;5111899;28;20036;-31
2022/04/13 06:17:29;;;;;;;15.63;6.65;;;;;;;10.53;100.00;101452.59;5112536;28;20044;-26
2022/04/13 06:19:57;;;;;;;18.77;7.10;;;;;;;10.57;100.00;101447.28;5112306;28;20043;-31
2022/04/13 06:22:24;;;;;;;14.30;5.57;;;;;;;10.61;100.00;101457.56;5112622;27;20040;-26
2022/04/13 06:24:52;;;;;;;14.25;6.30;;;;;;;10.64;100.00;101461.75;5112423;28;20046;-27
2022/04/13 06:27:22;;;;;;;14.73;6.18;;;;;;;10.67;100.00;101461.19;5110995;28;20043;-28
2022/04/13 06:29:50;;;;;;;15.60;6.20;;;;;;;10.66;100.00;101460.34;5100929;28;20047;-31
2022/04/13 06:32:18;;;;;;;13.45;5.80;;;;;;;10.70;100.00;101463.41;5112156;28;20062;-30
2022/04/13 06:34:45;;;;;;;12.30;5.47;;;;;;;10.73;100.00;101476.81;5111597;28;20136;-31
2022/04/13 06:37:13;;;;;;;12.95;5.32;;;;;;;10.76;100.00;101469.81;5112145;28;20040;-28
2022/04/13 06:39:41;;;;;;;12.63;5.60;;;;;;;10.77;100.00;101465.91;5111983;28;20055;-30
2022/04/13 06:42:09;;;;;;;13.65;5.53;;;;;;;10.79;100.00;101472.06;5111411;28;20122;-32
2022/04/13 06:44:38;;;;;;;14.50;5.47;;;;;;;10.83;100.00;101478.72;5111562;28;20047;-34
2022/04/13 06:47:06;;;;;;;14.80;5.05;;;;;;;10.83;100.00;101487.91;5111816;28;20043;-29
2022/04/13 06:49:34;;;;;;;13.35;6.00;;;;;;;10.85;100.00;101501.59;5111111;28;20047;-29
2022/04/13 06:52:02;;;;;;;15.23;6.63;;;;;;;10.85;100.00;101498.81;5112009;28;20058;-33
2022/04/13 06:54:29;;;;;;;12.65;5.72;;;;;;;10.90;100.00;101498.78;5111833;28;20130;-30
2022/04/13 06:56:57;;;;;;;12.60;5.78;;;;;;;10.98;100.00;101501.84;5110825;28;20043;-34
2022/04/13 06:59:25;;;;;;;11.57;5.20;;;;;;;11.08;100.00;101495.34;5111515;28;20043;-29
2022/04/13 07:01:54;;;;;;;12.23;5.43;;;;;;;11.16;100.00;101499.50;5111554;27;20369;-29
2022/04/13 07:04:22;;;;;;;12.05;4.95;;;;;;;11.18;100.00;101500.91;5110235;28;20040;-32
2022/04/13 07:06:50;;;;;;;11.25;5.13;;;;;;;11.18;100.00;101502.84;5111578;28;20047;-33
2022/04/13 07:09:18;;;;;;;13.90;5.80;;;;;;;11.18;100.00;101497.28;5110773;28;20514;-26
2022/04/13 07:11:46;;;;;;;12.15;5.90;;;;;;;11.17;100.00;101503.97;5111274;28;20424;-33
2022/04/13 07:14:14;;;;;;;15.43;6.45;;;;;;;11.14;100.00;101510.97;5111334;28;20039;-32
2022/04/13 07:16:41;;;;;;;15.70;5.90;;;;;;;11.15;100.00;101517.41;5110614;28;20124;-25
2022/04/13 07:19:10;;;;;;;10.75;5.45;;;;;;;11.16;100.00;101519.06;5111453;28;20093;-27
2022/04/13 07:21:38;;;;;;;11.45;5.60;;;;;;;11.15;100.00;101523.81;5098944;28;20142;-33
2022/04/13 07:24:27;;;;;;;12.35;5.65;;;;;;;11.22;100.00;101531.88;5110236;28;20043;-30
2022/04/13 07:26:55;;;;;;;15.93;5.78;;;;;;;11.22;100.00;101532.69;5111109;28;20043;-28
2022/04/13 07:29:23;;;;;;;13.50;5.50;;;;;;;11.18;100.00;101530.78;5111269;28;20055;-28
2022/04/13 07:31:50;;;;;;;13.38;5.50;;;;;;;11.17;100.00;101538.34;5110356;28;20046;-34
2022/04/13 07:34:19;;;;;;;14.02;5.97;;;;;;;11.21;100.00;101538.56;5111142;28;20124;-32
2022/04/13 07:36:47;;;;;;;14.85;5.47;;;;;;;11.24;100.00;101535.22;5110796;28;20054;-29
2022/04/13 07:39:15;;;;;;;13.55;5.07;;;;;;;11.29;100.00;101536.03;5110310;28;20048;-25
2022/04/13 07:41:43;;;;;;;15.73;5.43;;;;;;;11.39;100.00;101540.72;5109779;28;20397;-31
2022/04/13 07:44:12;;;;;;;15.43;5.57;;;;;;;11.56;100.00;101545.94;5110918;28;20078;-29
2022/04/13 07:46:39;;;;;;;12.48;5.07;;;;;;;11.80;100.00;101549.69;5109848;28;20048;-28
2022/04/13 07:49:08;;;;;;;12.52;4.68;;;;;;;12.00;100.00;101549.53;5109852;28;20036;-32
2022/04/13 07:51:40;;;;;;;13.98;5.57;;;;;;;12.17;100.00;101548.31;5110222;28;20051;-29
2022/04/13 07:54:08;;;;;;;12.27;4.65;;;;;;;12.28;100.00;101555.47;5110934;28;20074;-30
2022/04/13 07:56:56;;;;;;;8.98;4.60;;;;;;;12.44;100.00;101548.59;5111470;28;20051;-28
2022/04/13 07:59:24;;;;;;;11.25;4.45;;;;;;;12.61;100.00;101548.97;5109904;28;20039;-30
2022/04/13 08:01:52;;;;;;;12.57;4.47;;;;;;;12.69;100.00;101555.91;5110679;28;20051;-29
2022/04/13 08:04:20;;;;;;;13.00;5.20;;;;;;;12.75;100.00;101563.97;5110693;28;20093;-31
2022/04/13 08:06:56;;;;;;;13.95;4.80;;;;;;;12.75;100.00;101566.78;5109880;28;20043;-32
2022/04/13 08:09:24;;;;;;;17.15;4.85;;;;;;;12.71;100.00;101576.88;5110536;28;20127;-31
2022/04/13 08:11:52;;;;;;;9.43;3.85;;;;;;;12.70;100.00;101575.22;5110566;28;20063;-31
2022/04/13 08:14:20;;;;;;;13.88;4.45;;;;;;;12.66;100.00;101582.53;5109818;28;20170;-33
2022/04/13 08:16:49;;;;;;;12.45;5.15;;;;;;;12.60;100.00;101591.28;5110707;28;20142;-31
2022/04/13 08:19:18;;;;;;;13.20;4.25;;;;;;;12.73;100.00;101599.84;5110598;28;20050;-26
2022/04/13 08:21:45;;;;;;;11.60;4.50;;;;;;;12.90;100.00;101606.94;5109575;28;20141;-27
2022/04/13 08:24:17;;;;;;;14.00;4.55;;;;;;;13.03;100.00;101609.03;5110197;28;20048;-30
2022/04/13 08:26:45;;;;;;;9.82;3.85;;;;;;;13.12;100.00;101596.03;5104953;28;20043;-29
2022/04/13 08:29:13;;;;;;;12.07;4.20;;;;;;;13.17;100.00;101600.78;5109549;28;20344;-30
2022/04/13 08:31:41;;;;;;;9.88;3.92;;;;;;;13.17;100.00;101610.03;5109380;28;20485;-31
2022/04/13 08:34:08;;;;;;;14.05;4.07;;;;;;;13.31;100.00;101604.53;5112467;28;20059;-31
2022/04/13 08:36:36;;;;;;;11.88;4.35;;;;;;;13.37;100.00;101606.16;5113508;28;20043;-29
2022/04/13 08:39:13;;;;;;;10.77;3.60;;;;;;;13.39;100.00;101604.69;5112900;28;20039;-27
2022/04/13 08:41:49;;;;;;;11.73;3.88;;;;;;;13.44;100.00;101610.22;5112494;28;21393;-35
2022/04/13 08:44:19;;;;;;;7.85;3.22;;;;;;;13.46;100.00;101604.31;5113168;28;20131;-31
2022/04/13 08:46:47;;;;;;;12.02;3.92;;;;;;;13.65;100.00;101608.00;5113239;28;20350;-27
2022/04/13 08:49:15;;;;;;;12.05;4.00;;;;;;;13.86;100.00;101613.31;5112378;28;20036;-30
2022/04/13 08:52:03;;;;;;;10.13;3.50;;;;;;;14.05;100.00;101608.53;5103733;28;20040;-27
2022/04/13 08:54:32;;;;;;;10.48;3.50;;;;;;;14.22;100.00;101607.97;5113235;27;20047;-33
2022/04/13 08:57:08;;;;;;;8.27;3.20;;;;;;;14.36;100.00;101611.69;5112228;28;20069;-32
2022/04/13 08:59:55;;;;;;;13.00;3.92;;;;;;;14.56;100.00;101607.75;5112318;28;20109;-35
2022/04/13 09:02:34;;;;;;;12.73;3.60;;;;;;;14.90;100.00;101613.00;5112146;28;20056;-26
2022/04/13 09:05:10;;;;;;;10.07;3.80;;;;;;;15.15;100.00;101616.16;5112849;28;20035;-31
2022/04/13 09:07:40;;;;;;;12.32;3.53;;;;;;;15.43;100.00;101618.94;5113007;27;20046;-30
2022/04/13 09:10:12;;;;;;;10.00;2.97;;;;;;;15.67;100.00;101621.56;5111438;28;20458;-32
2022/04/13 09:12:43;;;;;;;10.40;3.15;;;;;;;15.77;100.00;101621.34;5112798;28;20062;-29
2022/04/13 09:15:13;;;;;;;9.27;3.58;;;;;;;15.67;100.00;101627.19;5112342;28;20057;-29
2022/04/13 09:17:42;;;;;;;12.82;3.80;;;;;;;15.53;100.00;101635.63;5099119;28;20048;-28
2022/04/13 09:20:11;;;;;;;11.52;3.30;;;;;;;15.64;100.00;101631.47;5108929;28;20489;-32
2022/04/13 09:22:40;;;;;;;13.40;3.85;;;;;;;15.62;100.00;101632.94;5112412;28;20515;-26
2022/04/13 09:25:09;;;;;;;10.10;3.50;;;;;;;15.71;100.00;101636.69;5111609;28;20075;-29
2022/04/13 09:27:37;;;;;;;9.70;3.67;;;;;;;15.68;100.00;101640.97;5112317;28;20048;-30
2022/04/13 09:30:08;;;;;;;10.23;3.45;;;;;;;15.81;100.00;101640.09;5111440;28;20055;-32
2022/04/13 09:32:36;;;;;;;9.13;3.03;;;;;;;16.05;100.00;101639.00;5111413;28;20044;-27
2022/04/13 09:35:04;;;;;;;12.73;3.80;;;;;;;16.34;100.00;101642.25;5111998;27;20816;-32
2022/04/13 09:37:32;;;;;;;10.82;3.90;;;;;;;16.59;100.00;101654.84;5110775;28;20190;-32
2022/04/13 09:40:00;;;;;;;7.80;2.72;;;;;;;16.68;98.65;101655.78;5112037;28;20054;-26
2022/04/13 09:42:28;;;;;;;9.25;3.30;;;;;;;16.87;98.82;101649.94;5112147;28;20058;-35
2022/04/13 09:44:58;;;;;;;8.30;3.33;;;;;;;16.76;95.43;101663.47;5110621;28;20039;-30
2022/04/13 09:47:33;;;;;;;9.20;3.03;;;;;;;16.51;96.46;101658.44;5112031;27;20047;-29
2022/04/13 09:50:01;;;;;;;10.82;3.83;;;;;;;16.39;97.22;101672.25;5103952;28;20051;-30
2022/04/13 09:52:33;;;;;;;9.65;3.67;;;;;;;16.07;96.92;101682.59;5111359;28;20412;-27
2022/04/13 09:55:04;;;;;;;9.00;3.45;;;;;;;15.75;98.19;101679.94;5112068;28;20050;-31
2022/04/13 09:57:33;;;;;;;11.68;4.10;;;;;;;15.61;99.36;101690.34;5112302;28;20055;-32
2022/04/13 10:00:02;;;;;;;12.85;4.13;;;;;;;15.20;100.00;101685.50;5110990;28;20051;-30
2022/04/13 10:02:41;;;;;;;7.97;3.58;;;;;;;15.05;100.00;101692.25;5112505;28;20052;-26
2022/04/13 10:05:10;;;;;;;14.10;4.50;;;;;;;14.89;100.00;101690.03;5111648;28;20067;-30
2022/04/13 10:07:37;;;;;;;10.13;3.45;;;;;;;14.59;100.00;101683.78;5111484;28;20055;-29
2022/04/13 10:10:22;;;;;;;10.25;4.45;;;;;;;14.54;100.00;101692.31;5112357;28;20051;-27
2022/04/13 10:12:54;;;;;;;9.38;3.65;;;;;;;14.56;100.00;101686.38;5111717;28;20047;-33
2022/04/13 10:15:23;;;;;;;13.18;4.20;;;;;;;14.73;100.00;101695.91;5112655;28;20073;-26
2022/04/13 10:17:58;;;;;;;10.93;4.00;;;;;;;14.75;100.00;101690.81;5112408;28;20054;-27
2022/04/13 10:20:42;;;;;;;10.50;3.88;;;;;;;14.70;100.00;101702.13;5111845;28;20060;-26
2022/04/13 10:23:10;;;;;;;8.60;3.53;;;;;;;14.60;100.00;101707.91;5111414;28;20171;-27
2022/04/13 10:25:38;;;;;;;9.20;3.53;;;;;;;14.46;100.00;101704.22;5110668;28;20039;-27
2022/04/13 10:28:06;;;;;;;9.13;3.42;;;;;;;14.34;100.00;101707.47;5109953;28;20048;-28
2022/04/13 10:30:35;;;;;;;11.35;3.63;;;;;;;14.24;100.00;101710.41;5110364;28;20031;-28
2022/04/13 10:33:06;;;;;;;9.60;3.72;;;;;;;14.13;100.00;101714.50;5110715;28;20047;-27
2022/04/13 10:35:36;;;;;;;11.32;3.85;;;;;;;14.07;100.00;101724.97;5110367;28;20718;-26
2022/04/13 10:38:04;;;;;;;8.57;4.43;;;;;;;14.05;100.00;101735.66;5110567;28;20054;-28
2022/04/13 10:40:33;;;;;;;8.13;3.78;;;;;;;13.98;100.00;101731.56;5110350;28;20167;-26
2022/04/13 10:43:04;;;;;;;8.88;3.70;;;;;;;13.89;100.00;101728.59;5112089;27;20052;-26
2022/04/13 10:45:34;;;;;;;9.23;4.30;;;;;;;13.84;100.00;101728.63;5112015;28;20127;-27
2022/04/13 10:48:05;;;;;;;11.90;3.97;;;;;;;13.87;100.00;101730.84;5111158;28;20051;-27
2022/04/13 10:50:38;;;;;;;9.57;3.73;;;;;;;13.88;100.00;101729.72;5112545;28;20090;-25
2022/04/13 10:53:19;;;;;;;9.32;4.20;;;;;;;13.85;100.00;101738.72;5111978;28;20050;-28
2022/04/13 10:55:59;;;;;;;9.02;3.88;;;;;;;13.82;100.00;101749.72;5111049;27;20466;-27
2022/04/13 10:58:42;;;;;;;12.10;4.38;;;;;;;13.80;100.00;101741.59;5108565;28;20063;-28
2022/04/13 11:01:13;;;;;;;8.77;4.18;;;;;;;13.79;100.00;101751.13;5101796;28;20376;-27
2022/04/13 11:03:43;;;;;;;10.43;4.53;;;;;;;13.78;100.00;101752.31;5111393;28;20058;-28
2022/04/13 11:06:12;;;;;;;9.35;3.90;;;;;;;13.83;100.00;101762.59;5111422;28;20399;-27
2022/04/13 11:08:47;;;;;;;7.60;3.67;;;;;;;13.88;100.00;101754.97;5110725;28;20055;-27
2022/04/13 11:11:18;;;;;;;11.50;3.90;;;;;;;13.95;100.00;101758.25;5111491;28;20047;-27
2022/04/13 11:13:48;;;;;;;10.38;3.60;;;;;;;14.04;100.00;101762.06;5111381;28;20035;-27
2022/04/13 11:16:17;;;;;;;9.63;3.63;;;;;;;14.12;100.00;101757.75;5110646;28;20081;-29
2022/04/13 11:19:21;;;;;;;10.40;4.35;;;;;;;14.05;100.00;101754.47;5110797;28;20075;-27